createdAt,value
2019-05-25T00:03:21.667Z,90.40
2019-05-25T00:07:26.493Z,90.50
2019-05-25T00:11:31.283Z,90.40
2019-05-25T00:15:35.960Z,90.50
2019-05-25T00:19:40.699Z,90.70
2019-05-25T00:23:45.233Z,91.40
2019-05-25T00:27:49.856Z,91.20
2019-05-25T00:31:54.414Z,90.90
2019-05-25T00:35:59.016Z,90.50
2019-05-25T00:40:08.353Z,91.10
2019-05-25T00:44:12.867Z,91.50
2019-05-25T00:48:17.392Z,91.30
2019-05-25T00:52:21.937Z,91.60
2019-05-25T00:56:26.501Z,91.80
2019-05-25T01:00:31.371Z,91.90
2019-05-25T01:04:35.979Z,92.20
2019-05-25T01:08:40.549Z,92.20
2019-05-25T01:12:45.142Z,92.40
2019-05-25T01:16:49.789Z,92.50
2019-05-25T01:20:54.360Z,92.50
2019-05-25T01:24:59.066Z,92.80
2019-05-25T01:29:03.927Z,92.80
2019-05-25T01:33:08.557Z,92.80
2019-05-25T01:37:13.086Z,93.00
2019-05-25T01:41:17.711Z,93.10
2019-05-25T01:45:22.341Z,93.00
2019-05-25T01:49:27.080Z,93.00
2019-05-25T01:53:31.699Z,93.30
2019-05-25T01:57:36.297Z,93.00
2019-05-25T02:01:40.864Z,93.10
2019-05-25T02:05:45.551Z,93.10
2019-05-25T02:09:50.084Z,93.00
2019-05-25T02:13:54.684Z,93.20
2019-05-25T02:17:59.281Z,93.30
2019-05-25T02:22:04.291Z,93.30
2019-05-25T02:26:08.949Z,93.40
2019-05-25T02:30:13.969Z,93.70
2019-05-25T02:34:18.537Z,93.60
2019-05-25T02:38:23.246Z,93.60
2019-05-25T02:42:27.745Z,93.70
2019-05-25T02:46:32.266Z,93.90
2019-05-25T02:50:36.806Z,94.10
2019-05-25T02:54:41.577Z,93.90
2019-05-25T02:58:46.215Z,93.80
2019-05-25T03:02:50.825Z,93.80
2019-05-25T03:06:55.586Z,93.80
2019-05-25T03:11:01.340Z,93.80
2019-05-25T03:15:08.795Z,94.00
2019-05-25T03:19:13.422Z,93.80
2019-05-25T03:23:18.051Z,94.00
2019-05-25T03:27:22.775Z,93.90
2019-05-25T03:31:27.323Z,94.10
2019-05-25T03:35:32.007Z,94.30
2019-05-25T03:39:36.591Z,94.10
2019-05-25T03:43:41.238Z,94.40
2019-05-25T03:47:45.921Z,94.20
2019-05-25T03:51:50.455Z,94.00
2019-05-25T03:56:05.169Z,93.90
2019-05-25T04:00:01.246Z,94.20
2019-05-25T04:04:05.842Z,94.40
2019-05-25T04:08:10.555Z,94.50
2019-05-25T04:12:15.099Z,94.40
2019-05-25T04:16:19.862Z,94.50
2019-05-25T04:20:24.362Z,94.40
2019-05-25T04:24:28.899Z,94.40
2019-05-25T04:28:33.571Z,94.10
2019-05-25T04:32:38.264Z,94.20
2019-05-25T04:36:42.796Z,93.90
2019-05-25T04:40:47.408Z,93.80
2019-05-25T04:44:51.967Z,93.60
2019-05-25T04:48:56.610Z,93.50
2019-05-25T04:53:01.211Z,93.50
2019-05-25T04:57:06.095Z,93.40
2019-05-25T05:01:10.892Z,93.80
2019-05-25T05:05:15.575Z,93.70
2019-05-25T05:09:20.115Z,93.70
2019-05-25T05:13:24.653Z,93.90
2019-05-25T05:17:29.183Z,94.50
2019-05-25T05:21:33.799Z,94.20
2019-05-25T05:25:38.332Z,94.00
2019-05-25T05:29:42.963Z,94.20
2019-05-25T05:33:47.536Z,93.80
2019-05-25T05:37:52.294Z,93.40
2019-05-25T05:41:58.770Z,93.30
2019-05-25T05:46:04.991Z,92.90
2019-05-25T05:50:10.282Z,92.80
2019-05-25T05:54:16.875Z,92.50
2019-05-25T05:58:21.473Z,92.10
2019-05-25T06:02:26.099Z,92.00
2019-05-25T06:06:30.653Z,91.80
2019-05-25T06:10:35.247Z,91.30
2019-05-25T06:14:39.804Z,90.80
2019-05-25T06:18:44.464Z,88.30
2019-05-25T06:22:49.098Z,89.30
2019-05-25T06:26:53.723Z,89.70
2019-05-25T06:30:58.583Z,88.30
2019-05-25T06:35:04.851Z,87.90
2019-05-25T06:39:09.607Z,84.80
2019-05-25T06:43:14.238Z,84.10
2019-05-25T06:47:18.887Z,86.00
2019-05-25T06:51:23.527Z,86.20
2019-05-25T06:55:28.158Z,85.10
2019-05-25T06:59:32.791Z,84.20
2019-05-25T07:03:37.340Z,84.60
2019-05-25T07:07:42.030Z,81.50
2019-05-25T07:11:46.594Z,81.30
2019-05-25T07:15:51.322Z,81.40
2019-05-25T07:19:55.955Z,83.00
2019-05-25T07:24:00.697Z,81.70
2019-05-25T07:28:05.501Z,82.20
2019-05-25T07:32:10.059Z,80.50
2019-05-25T07:36:14.602Z,78.90
2019-05-25T07:40:19.203Z,77.90
2019-05-25T07:44:23.771Z,76.90
2019-05-25T07:48:28.402Z,77.10
2019-05-25T07:52:33.051Z,73.10
2019-05-25T07:56:37.841Z,73.20
2019-05-25T08:00:42.485Z,72.70
2019-05-25T08:04:47.098Z,74.50
2019-05-25T08:08:51.879Z,75.80
2019-05-25T08:12:56.483Z,77.50
2019-05-25T08:17:01.325Z,76.40
2019-05-25T08:21:05.874Z,76.10
2019-05-25T08:25:10.666Z,75.00
2019-05-25T08:29:15.223Z,72.00
2019-05-25T08:33:19.767Z,67.90
2019-05-25T08:37:24.340Z,68.50
2019-05-25T08:41:28.990Z,66.30
2019-05-25T08:45:33.705Z,62.90
2019-05-25T08:49:38.279Z,63.20
2019-05-25T08:53:46.384Z,61.30
2019-05-25T08:57:49.075Z,61.30
2019-05-25T09:01:53.720Z,59.80
2019-05-25T09:05:58.383Z,63.70
2019-05-25T09:10:03.543Z,62.90
2019-05-25T09:14:08.165Z,62.90
2019-05-25T09:18:12.808Z,64.00
2019-05-25T09:22:17.360Z,62.40
2019-05-25T09:26:21.892Z,64.70
2019-05-25T09:30:26.524Z,63.80
2019-05-25T09:34:31.090Z,65.20
2019-05-25T09:38:35.745Z,60.40
2019-05-25T09:42:40.506Z,60.50
2019-05-25T09:46:45.348Z,60.30
2019-05-25T09:50:49.919Z,62.00
2019-05-25T09:54:55.668Z,62.70
2019-05-25T09:59:00.426Z,64.00
2019-05-25T10:03:05.021Z,66.40
2019-05-25T10:07:09.634Z,59.20
2019-05-25T10:11:14.146Z,56.50
2019-05-25T10:15:18.873Z,56.80
2019-05-25T10:19:23.471Z,53.90
2019-05-25T10:23:27.993Z,55.00
2019-05-25T10:27:34.267Z,56.40
2019-05-25T10:31:39.049Z,55.10
2019-05-25T10:35:43.731Z,57.50
2019-05-25T10:39:48.301Z,57.00
2019-05-25T10:43:52.797Z,54.90
2019-05-25T10:47:57.347Z,53.10
2019-05-25T10:52:01.883Z,52.80
2019-05-25T10:56:06.668Z,54.10
2019-05-25T11:00:12.568Z,56.10
2019-05-25T11:04:17.094Z,57.00
2019-05-25T11:08:21.778Z,57.50
2019-05-25T11:12:26.326Z,56.40
2019-05-25T11:16:30.996Z,54.10
2019-05-25T11:20:35.686Z,54.50
2019-05-25T11:24:40.329Z,51.40
2019-05-25T11:28:44.868Z,49.60
2019-05-25T11:32:50.281Z,53.80
2019-05-25T11:36:54.915Z,49.80
2019-05-25T11:40:59.489Z,50.00
2019-05-25T11:45:05.755Z,50.50
2019-05-25T11:49:22.049Z,47.70
2019-05-25T11:53:16.571Z,49.60
2019-05-25T11:57:21.126Z,51.60
2019-05-25T12:01:25.706Z,50.00
2019-05-25T12:05:30.353Z,46.60
2019-05-25T12:09:35.003Z,48.80
2019-05-25T12:13:39.552Z,49.40
2019-05-25T12:17:44.069Z,48.10
2019-05-25T12:21:49.667Z,49.40
2019-05-25T12:25:54.205Z,48.90
2019-05-25T12:29:58.911Z,51.50
2019-05-25T12:34:03.618Z,49.60
2019-05-25T12:38:08.456Z,51.20
2019-05-25T12:42:13.071Z,51.70
2019-05-25T12:46:17.705Z,55.20
2019-05-25T12:50:22.565Z,53.30
2019-05-25T12:54:27.140Z,54.30
2019-05-25T12:58:31.812Z,54.50
2019-05-25T13:02:36.469Z,55.80
2019-05-25T13:06:41.084Z,55.40
2019-05-25T13:10:45.684Z,55.20
2019-05-25T13:14:50.269Z,54.20
2019-05-25T13:18:54.990Z,52.70
2019-05-25T13:22:59.603Z,51.50
2019-05-25T13:27:04.262Z,50.20
2019-05-25T13:31:11.739Z,47.60
2019-05-25T13:35:15.088Z,45.50
2019-05-25T13:39:19.772Z,45.30
2019-05-25T13:43:24.412Z,46.40
2019-05-25T13:47:29.052Z,47.80
2019-05-25T13:51:33.778Z,47.80
2019-05-25T13:55:38.651Z,46.60
2019-05-25T13:59:43.385Z,46.00
2019-05-25T14:03:47.917Z,47.60
2019-05-25T14:07:52.498Z,46.70
2019-05-25T14:11:57.126Z,44.80
2019-05-25T14:16:07.302Z,45.40
2019-05-25T14:20:08.584Z,46.30
2019-05-25T14:24:13.411Z,44.00
2019-05-25T14:28:18.043Z,43.00
2019-05-25T14:32:22.690Z,42.80
2019-05-25T14:36:27.273Z,39.60
2019-05-25T14:40:31.979Z,41.60
2019-05-25T14:44:36.619Z,44.60
2019-05-25T14:48:41.157Z,46.30
2019-05-25T14:52:45.823Z,46.10
2019-05-25T14:56:50.606Z,45.90
2019-05-25T15:00:55.293Z,45.20
2019-05-25T15:05:00.006Z,45.50
2019-05-25T15:09:06.596Z,45.00
2019-05-25T15:13:11.234Z,46.00
2019-05-25T15:17:15.865Z,44.80
2019-05-25T15:21:20.761Z,46.20
2019-05-25T15:25:25.613Z,46.20
2019-05-25T15:29:30.485Z,48.60
2019-05-25T15:33:35.154Z,49.20
2019-05-25T15:37:39.837Z,49.10
2019-05-25T15:41:44.454Z,50.00
2019-05-25T15:45:49.096Z,50.90
2019-05-25T15:49:53.597Z,50.50
2019-05-25T15:53:58.234Z,49.40
2019-05-25T15:58:02.769Z,49.30
2019-05-25T16:02:07.511Z,48.30
2019-05-25T16:06:12.145Z,48.70
2019-05-25T16:10:16.912Z,49.80
2019-05-25T16:14:21.546Z,50.70
2019-05-25T16:18:26.186Z,49.30
2019-05-25T16:22:30.996Z,50.50
2019-05-25T16:26:45.637Z,51.10
2019-05-25T16:30:41.930Z,50.20
2019-05-25T16:34:46.564Z,51.80
2019-05-25T16:38:51.237Z,50.30
2019-05-25T16:42:55.927Z,50.40
2019-05-25T16:47:00.506Z,51.70
2019-05-25T16:51:05.193Z,50.80
2019-05-25T16:55:09.859Z,51.00
2019-05-25T16:59:14.511Z,50.90
2019-05-25T17:03:28.159Z,51.50
2019-05-25T17:07:25.852Z,50.00
2019-05-25T17:11:30.421Z,51.00
2019-05-25T17:15:35.079Z,51.10
2019-05-25T17:19:39.702Z,50.40
2019-05-25T17:23:44.252Z,50.40
2019-05-25T17:27:48.888Z,50.60
2019-05-25T17:31:53.542Z,50.50
2019-05-25T17:35:58.290Z,53.00
2019-05-25T17:40:04.039Z,52.90
2019-05-25T17:44:08.580Z,52.90
2019-05-25T17:48:13.196Z,53.80
2019-05-25T17:52:17.737Z,53.90
2019-05-25T17:56:22.230Z,54.90
2019-05-25T18:00:38.716Z,55.40
2019-05-25T18:04:43.272Z,56.50
2019-05-25T18:08:47.852Z,54.20
2019-05-25T18:12:52.501Z,53.90
2019-05-25T18:16:57.130Z,55.90
2019-05-25T18:21:01.761Z,56.10
2019-05-25T18:25:06.916Z,56.70
2019-05-25T18:29:11.675Z,57.80
2019-05-25T18:33:16.278Z,57.70
2019-05-25T18:37:20.877Z,57.40
2019-05-25T18:41:25.526Z,59.10
2019-05-25T18:45:30.652Z,62.10
2019-05-25T18:49:35.302Z,64.40
2019-05-25T18:53:39.969Z,66.00
2019-05-25T18:57:44.629Z,67.60
2019-05-25T19:01:49.350Z,68.70
2019-05-25T19:05:54.099Z,68.90
2019-05-25T19:09:58.753Z,69.70
2019-05-25T19:14:03.379Z,70.90
2019-05-25T19:18:07.960Z,72.10
2019-05-25T19:22:12.568Z,73.00
2019-05-25T19:26:17.173Z,73.80
2019-05-25T19:30:22.054Z,74.90
2019-05-25T19:34:26.582Z,76.00
2019-05-25T19:38:31.195Z,77.40
2019-05-25T19:42:35.794Z,78.10
2019-05-25T19:46:40.400Z,78.30
2019-05-25T19:50:44.931Z,79.80
2019-05-25T19:54:49.502Z,80.40
2019-05-25T19:58:54.173Z,82.20
2019-05-25T20:02:58.796Z,83.20
2019-05-25T20:07:03.514Z,84.50
2019-05-25T20:11:08.086Z,85.00
2019-05-25T20:15:12.943Z,86.00
2019-05-25T20:23:28.370Z,86.40
2019-05-25T20:27:32.941Z,88.40
2019-05-25T20:31:37.498Z,88.30
2019-05-25T20:35:42.309Z,88.70
2019-05-25T20:39:47.027Z,89.40
2019-05-25T20:43:51.641Z,90.00
2019-05-25T20:47:56.279Z,90.30
2019-05-25T20:52:00.969Z,90.70
2019-05-25T20:56:05.567Z,90.90
2019-05-25T21:00:10.351Z,90.80
2019-05-25T21:04:15.082Z,90.80
2019-05-25T21:08:19.653Z,91.10
2019-05-25T21:12:24.401Z,91.10
2019-05-25T21:16:29.041Z,91.30
2019-05-25T21:20:33.689Z,91.80
2019-05-25T21:24:38.249Z,91.70
2019-05-25T21:28:42.830Z,91.60
2019-05-25T21:32:47.661Z,91.70
2019-05-25T21:36:52.178Z,91.90
2019-05-25T21:40:56.747Z,91.90
2019-05-25T21:45:01.395Z,91.90
2019-05-25T21:49:05.943Z,91.90
2019-05-25T21:53:11.271Z,92.10
2019-05-25T21:57:16.175Z,92.20
2019-05-25T22:01:21.060Z,92.30
2019-05-25T22:05:25.678Z,92.30
2019-05-25T22:09:30.382Z,92.30
2019-05-25T22:13:34.915Z,92.30
2019-05-25T22:17:39.633Z,92.40
2019-05-25T22:21:46.247Z,92.80
2019-05-25T22:25:50.630Z,92.40
2019-05-25T22:29:55.203Z,92.50
2019-05-25T22:33:59.735Z,92.30
2019-05-25T22:38:04.797Z,92.50
2019-05-25T22:42:09.329Z,92.90
2019-05-25T22:46:13.944Z,93.00
2019-05-25T22:50:18.698Z,92.90
2019-05-25T22:54:23.334Z,92.90
2019-05-25T22:58:28.008Z,92.70
2019-05-25T23:02:32.585Z,93.00
2019-05-25T23:06:37.144Z,93.20
2019-05-25T23:10:41.819Z,93.10
2019-05-25T23:14:46.510Z,93.10
2019-05-25T23:18:51.065Z,93.20
2019-05-25T23:22:55.673Z,93.20
2019-05-25T23:27:00.208Z,93.20
2019-05-25T23:31:05.060Z,93.20
2019-05-25T23:35:10.121Z,93.40
2019-05-25T23:39:14.826Z,93.60
2019-05-25T23:43:19.500Z,93.60
2019-05-25T23:47:24.315Z,93.30
2019-05-25T23:51:29.223Z,93.60
2019-05-25T23:55:34.759Z,94.00
2019-05-25T23:59:39.600Z,93.30
